Time;durP1;ratioP1;P1;durP2;ratioP2;P2;SDS_P1;SDS_P2;PMS_P1;PMS_P2;Temp;Humidity;BMP_temperature;BMP_pressure;BME280_temperature;BME280_humidity;BME280_pressure;Samples;Min_cycle;Max_cycle;Signal;HPM_P1;HPM_P2
2023/08/08 00:00:19;;;;;;;2.63;1.90;;;29.00;50.20;;;;;;4992947;28;20076;-70
2023/08/08 00:02:45;;;;;;;6.35;1.38;;;29.10;50.20;;;;;;4992844;28;20034;-69
2023/08/08 00:05:11;;;;;;;1.40;1.23;;;29.00;50.20;;;;;;4992690;28;20506;-70
2023/08/08 00:07:37;;;;;;;1.45;1.20;;;29.00;50.10;;;;;;4992651;28;20113;-70
2023/08/08 00:10:04;;;;;;;2.15;1.30;;;29.00;50.20;;;;;;4992804;28;20172;-70
2023/08/08 00:12:30;;;;;;;2.15;1.30;;;29.10;50.30;;;;;;4992814;28;20033;-70
2023/08/08 00:14:56;;;;;;;1.25;1.08;;;28.90;49.70;;;;;;4991448;28;20062;-70
2023/08/08 00:17:22;;;;;;;1.13;0.90;;;29.00;50.40;;;;;;4992508;28;20045;-70
2023/08/08 00:19:48;;;;;;;1.05;1.05;;;28.90;50.00;;;;;;4992901;28;20038;-70
2023/08/08 00:22:15;;;;;;;2.17;1.27;;;29.00;50.60;;;;;;4992669;28;20534;-70
2023/08/08 00:24:41;;;;;;;1.10;1.10;;;29.00;50.50;;;;;;4992556;28;20042;-70
2023/08/08 00:27:07;;;;;;;1.63;1.30;;;28.90;50.00;;;;;;4992550;28;20077;-70
2023/08/08 00:29:33;;;;;;;1.98;1.42;;;29.10;50.50;;;;;;4991180;28;20124;-70
2023/08/08 00:32:21;;;;;;;2.00;1.38;;;29.00;50.60;;;;;;4992396;28;20038;-70
2023/08/08 00:34:48;;;;;;;3.33;1.80;;;29.00;50.60;;;;;;4975017;28;20066;-70
2023/08/08 00:37:14;;;;;;;1.75;1.65;;;29.00;50.60;;;;;;4992647;28;20178;-71
2023/08/08 00:39:42;;;;;;;1.10;1.05;;;28.90;50.00;;;;;;4992340;28;20446;-70
2023/08/08 00:42:08;;;;;;;1.10;1.00;;;28.90;50.10;;;;;;4992307;28;20030;-70
2023/08/08 00:44:34;;;;;;;1.33;1.13;;;29.00;50.60;;;;;;4992413;28;20052;-70
2023/08/08 00:47:00;;;;;;;2.65;1.50;;;29.10;50.60;;;;;;4990814;28;20451;-70
2023/08/08 00:49:27;;;;;;;1.23;1.10;;;29.00;50.60;;;;;;4992242;28;20022;-71
2023/08/08 00:51:53;;;;;;;5.03;1.38;;;29.00;50.70;;;;;;4991918;28;20034;-71
2023/08/08 00:54:21;;;;;;;1.92;1.77;;;28.90;50.10;;;;;;4992267;28;20115;-70
2023/08/08 00:56:47;;;;;;;2.00;1.25;;;28.90;50.00;;;;;;4991964;28;20037;-71
2023/08/08 00:59:15;;;;;;;1.65;1.23;;;29.00;50.60;;;;;;4992027;28;20112;-71
2023/08/08 01:01:42;;;;;;;2.05;1.20;;;28.90;50.20;;;;;;4991546;28;20030;-70
2023/08/08 01:04:07;;;;;;;1.73;1.15;;;29.00;50.80;;;;;;4992124;28;20057;-69
2023/08/08 01:06:47;;;;;;;1.35;1.15;;;28.90;50.30;;;;;;4991858;28;20030;-71
2023/08/08 01:09:35;;;;;;;1.70;1.48;;;28.90;50.30;;;;;;4974349;28;20046;-71
2023/08/08 01:12:03;;;;;;;1.00;1.00;;;28.90;50.40;;;;;;4990352;28;20030;-70
2023/08/08 01:14:34;;;;;;;1.60;1.27;;;29.00;50.90;;;;;;4992129;28;20414;-70
2023/08/08 01:17:00;;;;;;;1.30;1.20;;;28.90;50.40;;;;;;4991844;28;20077;-69
2023/08/08 01:19:32;;;;;;;1.75;1.08;;;28.90;50.30;;;;;;4990665;28;20049;-69
2023/08/08 01:22:05;;;;;;;1.35;1.25;;;28.90;50.30;;;;;;4990391;28;20045;-70
2023/08/08 01:24:34;;;;;;;1.40;1.30;;;28.90;50.40;;;;;;4991627;28;20042;-70
2023/08/08 01:27:00;;;;;;;2.53;1.20;;;28.90;50.30;;;;;;4991800;28;20109;-70
2023/08/08 01:29:27;;;;;;;0.90;0.90;;;29.00;50.90;;;;;;4990547;28;20030;-70
2023/08/08 01:31:54;;;;;;;1.65;1.08;;;29.00;50.90;;;;;;4991396;28;20385;-70
2023/08/08 01:34:21;;;;;;;2.58;1.08;;;28.90;50.40;;;;;;4990423;28;20117;-70
2023/08/08 01:37:02;;;;;;;1.13;1.02;;;28.90;50.40;;;;;;4991439;28;20458;-69
2023/08/08 01:39:32;;;;;;;1.73;1.50;;;29.00;51.00;;;;;;4991550;28;20455;-70
2023/08/08 01:42:00;;;;;;;1.33;1.23;;;29.10;51.10;;;;;;4991460;28;20034;-70
2023/08/08 01:44:28;;;;;;;2.88;1.48;;;28.90;50.50;;;;;;4990057;28;20101;-69
2023/08/08 01:46:55;;;;;;;1.50;1.40;;;28.90;50.40;;;;;;4991300;28;20054;-70
2023/08/08 01:49:21;;;;;;;2.33;1.42;;;29.00;51.00;;;;;;4991663;28;20042;-69
2023/08/08 01:51:48;;;;;;;0.90;0.90;;;28.80;50.60;;;;;;4989827;28;20037;-70
2023/08/08 01:54:14;;;;;;;1.40;1.10;;;28.90;50.70;;;;;;4991426;28;20030;-70
2023/08/08 01:56:40;;;;;;;1.30;1.10;;;28.80;50.80;;;;;;4991536;28;20061;-69
2023/08/08 01:59:06;;;;;;;1.17;1.05;;;28.90;50.80;;;;;;4989931;28;20113;-68
2023/08/08 02:01:33;;;;;;;1.08;0.98;;;28.80;50.90;;;;;;4990012;28;20038;-70
2023/08/08 02:04:04;;;;;;;1.40;1.15;;;28.90;50.90;;;;;;4992996;28;20034;-70
2023/08/08 02:06:30;;;;;;;1.13;1.08;;;28.80;51.00;;;;;;5010573;28;20078;-70
2023/08/08 02:08:56;;;;;;;1.50;0.98;;;28.80;51.00;;;;;;4995249;28;20113;-69
2023/08/08 02:11:22;;;;;;;1.30;1.17;;;28.90;51.00;;;;;;4995098;28;20450;-70
2023/08/08 02:13:49;;;;;;;1.05;0.98;;;28.80;51.00;;;;;;4994922;28;20394;-69
2023/08/08 02:16:15;;;;;;;1.77;0.85;;;28.90;51.00;;;;;;4994913;28;20069;-70
2023/08/08 02:18:41;;;;;;;2.65;1.27;;;28.80;51.00;;;;;;4994975;28;20050;-70
2023/08/08 02:21:08;;;;;;;1.27;0.88;;;28.90;51.10;;;;;;4994786;28;20065;-70
2023/08/08 02:23:36;;;;;;;1.30;1.20;;;28.90;51.10;;;;;;4995021;28;20038;-70
2023/08/08 02:26:03;;;;;;;1.38;1.20;;;29.00;51.70;;;;;;4993375;28;20096;-69
2023/08/08 02:28:29;;;;;;;1.15;1.00;;;28.90;51.10;;;;;;4979288;28;20194;-70
2023/08/08 02:30:55;;;;;;;1.25;1.13;;;28.90;51.10;;;;;;5011657;28;20054;-70
2023/08/08 02:33:21;;;;;;;1.30;1.20;;;28.90;51.10;;;;;;5011590;28;20068;-70
2023/08/08 02:35:47;;;;;;;1.02;1.00;;;28.80;51.10;;;;;;5011481;28;20045;-69
2023/08/08 02:38:14;;;;;;;1.05;1.05;;;28.80;51.00;;;;;;5011798;28;20100;-70
2023/08/08 02:40:40;;;;;;;1.83;1.40;;;28.80;51.00;;;;;;5011693;28;20052;-71
2023/08/08 02:43:09;;;;;;;1.33;0.90;;;28.90;51.20;;;;;;5011486;28;20603;-70
2023/08/08 02:45:35;;;;;;;1.02;1.00;;;28.80;51.30;;;;;;5011417;28;20037;-70
2023/08/08 02:48:01;;;;;;;2.28;1.30;;;28.80;51.30;;;;;;4995062;28;20057;-70
2023/08/08 02:50:27;;;;;;;1.67;1.42;;;28.80;51.30;;;;;;5011427;28;20026;-70
2023/08/08 02:52:54;;;;;;;2.17;1.10;;;28.70;51.40;;;;;;5011253;28;20077;-69
2023/08/08 02:55:23;;;;;;;1.30;1.20;;;28.80;51.40;;;;;;4995024;28;20049;-69
2023/08/08 02:57:51;;;;;;;0.80;0.80;;;28.80;51.40;;;;;;4994764;28;20041;-70
2023/08/08 03:00:17;;;;;;;0.93;0.82;;;28.70;51.40;;;;;;4994899;28;20053;-70
2023/08/08 03:02:47;;;;;;;2.45;1.10;;;28.90;51.40;;;;;;4994701;28;20041;-70
2023/08/08 03:05:15;;;;;;;2.88;1.13;;;29.00;52.00;;;;;;5007141;28;20224;-70
2023/08/08 03:07:42;;;;;;;1.77;1.10;;;29.00;52.00;;;;;;4992859;28;20053;-70
2023/08/08 03:10:08;;;;;;;1.38;1.23;;;28.90;51.50;;;;;;4992766;28;20041;-70
2023/08/08 03:12:37;;;;;;;2.22;1.38;;;28.90;51.50;;;;;;4992487;28;20055;-69
2023/08/08 03:15:04;;;;;;;1.10;1.00;;;28.90;51.50;;;;;;4991363;28;20030;-69
2023/08/08 03:17:31;;;;;;;3.80;1.42;;;29.00;52.00;;;;;;4992733;28;20085;-70
2023/08/08 03:19:57;;;;;;;2.53;0.95;;;29.00;52.00;;;;;;4992595;28;20031;-69
2023/08/08 03:22:26;;;;;;;1.23;1.00;;;28.90;51.50;;;;;;4992372;28;20031;-70
2023/08/08 03:24:52;;;;;;;1.00;1.00;;;28.90;51.50;;;;;;4992343;28;20031;-70
2023/08/08 03:27:18;;;;;;;1.05;1.00;;;29.00;52.10;;;;;;4976190;28;20038;-70
2023/08/08 03:29:48;;;;;;;1.52;1.00;;;28.80;51.50;;;;;;4992449;28;20039;-70
2023/08/08 03:32:16;;;;;;;3.75;0.88;;;28.70;51.40;;;;;;4976123;28;20093;-70
2023/08/08 03:34:42;;;;;;;2.58;1.17;;;28.90;51.40;;;;;;4992134;28;20061;-70
2023/08/08 03:37:10;;;;;;;0.90;0.90;;;28.80;51.40;;;;;;4992342;28;20042;-70
2023/08/08 03:39:36;;;;;;;1.10;0.90;;;28.80;51.50;;;;;;4991954;28;20053;-71
2023/08/08 03:42:03;;;;;;;1.25;0.82;;;28.80;51.70;;;;;;4993473;28;20040;-69
2023/08/08 03:44:29;;;;;;;2.03;1.67;;;28.70;51.70;;;;;;4992255;28;20045;-70
2023/08/08 03:46:55;;;;;;;1.45;1.00;;;28.70;51.80;;;;;;4993260;28;20376;-70
2023/08/08 03:49:21;;;;;;;1.98;1.17;;;28.80;51.80;;;;;;4993281;28;20036;-69
2023/08/08 03:51:48;;;;;;;2.97;1.55;;;28.70;51.80;;;;;;4993022;28;20058;-70
2023/08/08 03:54:15;;;;;;;1.40;0.82;;;28.60;51.80;;;;;;4992031;28;20026;-70
2023/08/08 03:56:41;;;;;;;0.80;0.80;;;28.70;51.80;;;;;;4991732;28;20031;-70
2023/08/08 03:59:08;;;;;;;1.10;0.98;;;28.80;51.80;;;;;;4991886;28;20034;-70
2023/08/08 04:01:35;;;;;;;1.65;1.27;;;28.80;51.90;;;;;;4992704;28;20038;-70
2023/08/08 04:04:01;;;;;;;2.60;1.20;;;28.80;51.90;;;;;;4993138;28;20054;-70
2023/08/08 04:06:27;;;;;;;1.77;1.40;;;28.70;51.90;;;;;;4991708;28;20030;-70
2023/08/08 04:08:53;;;;;;;1.98;1.30;;;28.80;51.90;;;;;;4992803;28;20062;-70
2023/08/08 04:11:19;;;;;;;1.63;1.35;;;28.80;52.00;;;;;;4993093;28;20402;-70
2023/08/08 04:13:45;;;;;;;1.77;1.20;;;28.90;51.90;;;;;;4992653;28;20033;-71
2023/08/08 04:16:11;;;;;;;1.10;0.98;;;28.90;51.90;;;;;;4992753;28;20030;-71
2023/08/08 04:18:37;;;;;;;1.45;0.75;;;28.80;51.80;;;;;;4992684;28;20125;-72
2023/08/08 04:21:03;;;;;;;1.58;1.13;;;28.80;50.80;;;;;;4991602;28;20045;-72
2023/08/08 04:23:30;;;;;;;2.08;1.05;;;28.80;49.70;;;;;;4992210;28;20034;-72
2023/08/08 04:25:56;;;;;;;3.72;1.23;;;28.80;48.40;;;;;;4991881;28;20038;-74
2023/08/08 04:28:22;;;;;;;3.15;1.20;;;28.70;48.10;;;;;;4991266;28;20062;-75
2023/08/08 04:30:48;;;;;;;2.20;1.40;;;28.60;47.40;;;;;;4992517;28;20030;-74
2023/08/08 04:33:15;;;;;;;5.10;2.15;;;28.60;47.00;;;;;;4992123;28;20513;-75
2023/08/08 04:35:41;;;;;;;2.42;1.52;;;28.60;47.00;;;;;;4992426;28;20038;-74
2023/08/08 04:38:08;;;;;;;2.38;1.58;;;28.70;48.80;;;;;;4991136;28;20092;-75
2023/08/08 04:40:35;;;;;;;1.95;1.63;;;29.10;51.60;;;;;;4992609;28;20026;-76
2023/08/08 04:43:01;;;;;;;2.70;1.48;;;29.50;54.40;;;;;;4992368;28;20128;-75
2023/08/08 04:45:28;;;;;;;1.50;1.40;;;29.50;54.20;;;;;;4992362;28;20097;-74
2023/08/08 04:47:55;;;;;;;2.90;1.30;;;29.40;50.30;;;;;;4991135;28;20117;-75
2023/08/08 04:50:21;;;;;;;2.67;1.70;;;29.20;50.00;;;;;;4990892;28;20379;-74
2023/08/08 04:52:47;;;;;;;2.28;1.58;;;29.20;48.80;;;;;;4992175;28;20129;-73
2023/08/08 04:55:13;;;;;;;5.32;2.63;;;29.10;49.20;;;;;;4992122;28;20505;-73
2023/08/08 04:57:39;;;;;;;4.53;2.05;;;29.10;49.10;;;;;;4992042;28;20122;-72
2023/08/08 05:00:08;;;;;;;2.75;2.20;;;29.00;48.80;;;;;;4992205;28;20034;-73
2023/08/08 05:02:35;;;;;;;11.60;3.35;;;29.20;48.50;;;;;;4990580;28;20786;-74
2023/08/08 05:05:01;;;;;;;3.05;1.70;;;29.20;48.80;;;;;;4991798;28;20120;-74
2023/08/08 05:07:48;;;;;;;4.28;2.28;;;29.30;51.10;;;;;;4994164;28;20045;-73
2023/08/08 05:10:14;;;;;;;2.97;1.60;;;29.40;46.80;;;;;;4993987;28;20379;-72
2023/08/08 05:12:40;;;;;;;4.72;1.80;;;29.30;45.60;;;;;;5011519;28;20478;-77
2023/08/08 05:15:07;;;;;;;2.75;1.50;;;29.40;46.70;;;;;;5006550;28;20026;-74
2023/08/08 05:17:33;;;;;;;7.82;2.50;;;29.30;46.50;;;;;;4991811;28;20390;-74
2023/08/08 05:19:59;;;;;;;3.83;1.77;;;29.30;47.10;;;;;;4991832;28;20065;-74
2023/08/08 05:22:26;;;;;;;2.70;1.88;;;29.20;47.40;;;;;;5006651;28;20049;-74
2023/08/08 05:24:52;;;;;;;4.13;2.20;;;29.30;47.30;;;;;;5006794;28;20305;-74
2023/08/08 05:27:18;;;;;;;7.55;2.50;;;29.40;47.40;;;;;;5011296;28;20038;-72
2023/08/08 05:29:44;;;;;;;2.20;1.88;;;29.40;47.40;;;;;;5011334;28;20396;-75
2023/08/08 05:32:10;;;;;;;2.20;2.00;;;29.30;47.50;;;;;;5011229;28;20034;-75
2023/08/08 05:34:36;;;;;;;3.70;2.10;;;29.20;47.10;;;;;;5010342;28;20139;-75
2023/08/08 05:37:05;;;;;;;5.55;1.60;;;29.40;46.70;;;;;;5011357;28;20835;-75
2023/08/08 05:39:35;;;;;;;2.10;1.60;;;29.50;46.30;;;;;;5014433;28;20021;-80
2023/08/08 05:42:08;;;;;;;2.50;1.63;;;29.40;45.70;;;;;;5015671;28;20048;-82
2023/08/08 05:44:44;;;;;;;5.00;2.35;;;29.40;46.00;;;;;;5015169;28;20509;-80
2023/08/08 05:47:10;;;;;;;4.32;1.58;;;29.40;46.70;;;;;;5030688;28;20467;-79
2023/08/08 05:49:38;;;;;;;8.00;1.55;;;29.20;46.70;;;;;;5015281;28;20034;-78
2023/08/08 05:52:04;;;;;;;4.20;1.33;;;29.20;46.60;;;;;;5015135;28;20038;-82
2023/08/08 05:54:33;;;;;;;6.03;1.58;;;29.20;46.60;;;;;;5015098;28;20088;-74
2023/08/08 05:57:03;;;;;;;2.75;1.70;;;29.10;46.60;;;;;;5015008;28;20057;-75
2023/08/08 05:59:50;;;;;;;1.83;1.55;;;29.10;46.60;;;;;;5014888;28;20033;-78
2023/08/08 06:02:16;;;;;;;2.83;1.80;;;29.10;46.90;;;;;;5014995;28;20042;-76
2023/08/08 06:05:02;;;;;;;2.13;1.45;;;29.10;46.90;;;;;;5013271;28;20140;-77
2023/08/08 06:07:29;;;;;;;4.40;1.48;;;28.90;46.30;;;;;;5015219;28;20041;-74
2023/08/08 06:09:55;;;;;;;3.47;1.58;;;29.00;47.00;;;;;;5014570;28;20053;-70
2023/08/08 06:12:21;;;;;;;3.50;1.30;;;29.10;47.30;;;;;;5014893;28;20044;-70
2023/08/08 06:14:48;;;;;;;3.10;1.50;;;29.00;47.30;;;;;;4996531;28;20117;-72
2023/08/08 06:17:14;;;;;;;5.20;1.67;;;29.10;47.10;;;;;;4993355;28;20042;-71
2023/08/08 06:19:40;;;;;;;2.13;1.20;;;29.10;47.10;;;;;;4983824;28;20054;-72
2023/08/08 06:22:07;;;;;;;3.97;1.35;;;29.10;46.90;;;;;;4977120;28;20053;-68
2023/08/08 06:24:33;;;;;;;3.70;1.52;;;29.10;46.90;;;;;;4974068;28;20105;-75
2023/08/08 06:26:59;;;;;;;1.95;1.33;;;29.10;47.10;;;;;;4975168;28;20177;-76
2023/08/08 06:29:28;;;;;;;2.05;1.60;;;29.00;47.40;;;;;;4985048;28;20045;-74
2023/08/08 06:31:55;;;;;;;5.07;1.70;;;29.00;47.50;;;;;;4982727;28;20121;-75
2023/08/08 06:34:21;;;;;;;2.20;1.50;;;29.10;47.70;;;;;;4994468;28;20038;-75
2023/08/08 06:36:47;;;;;;;2.72;1.00;;;29.10;47.80;;;;;;5009700;28;20042;-74
2023/08/08 06:39:14;;;;;;;4.05;1.73;;;29.00;47.90;;;;;;4993319;28;20393;-71
2023/08/08 06:41:41;;;;;;;2.08;1.63;;;29.10;48.20;;;;;;4994717;28;20069;-71
2023/08/08 06:44:10;;;;;;;2.85;1.98;;;29.00;48.20;;;;;;4994262;28;20030;-72
2023/08/08 06:46:36;;;;;;;3.25;1.65;;;29.20;48.20;;;;;;4994619;28;20089;-72
2023/08/08 06:49:03;;;;;;;1.40;1.30;;;29.20;48.20;;;;;;4994258;28;20046;-73
2023/08/08 06:51:29;;;;;;;2.42;1.55;;;29.20;48.20;;;;;;4994501;28;20442;-71
2023/08/08 06:53:55;;;;;;;2.97;1.30;;;29.20;48.20;;;;;;4985375;28;20034;-72
2023/08/08 06:56:21;;;;;;;4.47;1.25;;;29.20;48.30;;;;;;4975024;28;20097;-72
2023/08/08 06:58:47;;;;;;;3.03;1.27;;;29.20;48.20;;;;;;4975755;28;20031;-71
2023/08/08 07:01:13;;;;;;;7.93;1.67;;;29.10;48.10;;;;;;4993393;28;20049;-73
2023/08/08 07:03:40;;;;;;;1.30;1.20;;;29.10;47.70;;;;;;4992182;28;20061;-74
2023/08/08 07:06:06;;;;;;;1.85;1.45;;;29.00;47.50;;;;;;4987645;28;20041;-70
2023/08/08 07:08:32;;;;;;;1.30;1.05;;;29.10;47.20;;;;;;4991343;28;20040;-73
2023/08/08 07:10:58;;;;;;;1.75;0.82;;;29.10;47.10;;;;;;4983235;28;20033;-72
2023/08/08 07:13:24;;;;;;;1.30;1.20;;;29.10;47.20;;;;;;4985607;28;20049;-72
2023/08/08 07:15:50;;;;;;;4.65;1.10;;;29.00;46.70;;;;;;4990654;28;20034;-71
2023/08/08 07:18:17;;;;;;;1.02;0.90;;;28.90;45.80;;;;;;4980365;28;20034;-70
2023/08/08 07:20:43;;;;;;;1.17;0.95;;;28.90;45.60;;;;;;4989071;28;20041;-71
2023/08/08 07:23:09;;;;;;;1.40;1.10;;;28.80;45.10;;;;;;4974113;28;20071;-72
2023/08/08 07:25:35;;;;;;;1.38;0.98;;;29.00;46.70;;;;;;4979714;28;20549;-72
2023/08/08 07:28:04;;;;;;;0.70;0.70;;;29.20;46.40;;;;;;4993756;28;20092;-75
2023/08/08 07:30:34;;;;;;;1.65;1.05;;;29.40;47.40;;;;;;4990459;28;20474;-73
2023/08/08 07:33:00;;;;;;;1.00;1.00;;;29.70;52.20;;;;;;4973915;28;20070;-73
2023/08/08 07:35:27;;;;;;;1.70;1.10;;;29.70;52.90;;;;;;4989168;28;20447;-71
2023/08/08 07:37:53;;;;;;;1.60;0.93;;;29.70;49.10;;;;;;4993655;28;20022;-72
2023/08/08 07:40:21;;;;;;;1.13;0.90;;;29.70;47.00;;;;;;4993786;28;20042;-74
2023/08/08 07:42:48;;;;;;;0.95;0.88;;;29.40;45.80;;;;;;4993541;28;20037;-73
2023/08/08 07:45:15;;;;;;;1.10;0.90;;;29.40;46.20;;;;;;4987047;28;20558;-71
2023/08/08 07:47:42;;;;;;;1.20;0.98;;;29.30;44.40;;;;;;4972526;28;20755;-72
2023/08/08 07:50:08;;;;;;;0.95;0.85;;;29.30;45.00;;;;;;4974152;28;20406;-72
2023/08/08 07:52:36;;;;;;;1.65;0.82;;;29.20;44.80;;;;;;4993086;28;20043;-73
2023/08/08 07:55:03;;;;;;;1.50;0.93;;;29.30;44.70;;;;;;4986579;28;20083;-74
2023/08/08 07:57:34;;;;;;;4.13;0.80;;;29.20;44.30;;;;;;4980065;28;20588;-75
2023/08/08 08:00:13;;;;;;;0.82;0.82;;;29.30;44.10;;;;;;4987705;28;20049;-71
2023/08/08 08:02:41;;;;;;;1.70;0.93;;;29.20;43.90;;;;;;4973303;28;20039;-72
2023/08/08 08:05:07;;;;;;;2.75;1.10;;;29.30;43.90;;;;;;4992358;28;20402;-73
2023/08/08 08:07:35;;;;;;;1.10;1.10;;;29.10;43.00;;;;;;4976580;28;20104;-73
2023/08/08 08:10:06;;;;;;;2.95;0.65;;;29.00;43.20;;;;;;4976888;28;20026;-76
2023/08/08 08:12:33;;;;;;;0.80;0.80;;;29.10;42.90;;;;;;4981718;28;20026;-75
2023/08/08 08:14:59;;;;;;;1.08;0.93;;;29.00;43.20;;;;;;4979965;28;20034;-74
2023/08/08 08:17:27;;;;;;;1.25;0.60;;;28.90;42.70;;;;;;4981975;28;20045;-74
2023/08/08 08:19:54;;;;;;;1.85;0.98;;;29.10;43.00;;;;;;4981420;28;20058;-76
2023/08/08 08:22:30;;;;;;;2.22;0.77;;;28.90;42.20;;;;;;4981889;28;20030;-72
2023/08/08 08:24:56;;;;;;;0.70;0.70;;;28.90;42.50;;;;;;4989456;28;20042;-73
2023/08/08 08:27:31;;;;;;;2.30;0.77;;;28.90;43.00;;;;;;4992537;28;20049;-73
2023/08/08 08:29:57;;;;;;;1.88;0.75;;;28.80;43.20;;;;;;4992743;28;20041;-73
2023/08/08 08:32:24;;;;;;;0.98;0.60;;;28.90;43.00;;;;;;4992454;28;20540;-72
2023/08/08 08:34:50;;;;;;;1.80;0.80;;;28.90;42.90;;;;;;4992116;28;20036;-73
2023/08/08 08:37:16;;;;;;;0.73;0.73;;;28.90;42.40;;;;;;4991642;28;20118;-75
2023/08/08 08:39:42;;;;;;;0.73;0.73;;;29.00;43.10;;;;;;4992220;28;20040;-73
2023/08/08 08:42:13;;;;;;;1.08;0.68;;;28.90;42.30;;;;;;4992708;28;20113;-74
2023/08/08 08:44:40;;;;;;;4.38;0.95;;;28.80;42.40;;;;;;4992332;28;20133;-73
2023/08/08 08:47:10;;;;;;;4.95;1.02;;;28.90;42.00;;;;;;4992514;28;20042;-72
2023/08/08 08:49:38;;;;;;;1.05;0.93;;;28.80;41.90;;;;;;4992351;28;20026;-73
2023/08/08 08:52:05;;;;;;;1.17;0.90;;;28.80;41.90;;;;;;4992419;28;20109;-75
2023/08/08 08:54:32;;;;;;;1.50;0.85;;;28.80;42.00;;;;;;5006097;28;20070;-74
2023/08/08 08:56:59;;;;;;;0.73;0.65;;;29.00;42.40;;;;;;4992394;28;20045;-75
2023/08/08 08:59:25;;;;;;;0.70;0.70;;;28.80;41.50;;;;;;4992331;28;20371;-74
2023/08/08 09:01:52;;;;;;;3.05;0.75;;;28.80;41.70;;;;;;4992215;28;20038;-74
2023/08/08 09:04:20;;;;;;;0.68;0.65;;;28.80;41.20;;;;;;4992022;28;20383;-75
2023/08/08 09:06:48;;;;;;;0.95;0.90;;;28.80;41.10;;;;;;4991972;28;20057;-75
2023/08/08 09:09:15;;;;;;;1.27;0.70;;;28.60;40.80;;;;;;4992167;28;20027;-74
2023/08/08 09:11:54;;;;;;;1.55;0.82;;;28.70;40.80;;;;;;4991803;28;20034;-74
2023/08/08 09:14:23;;;;;;;1.17;1.00;;;28.50;40.80;;;;;;4991922;28;20035;-72
2023/08/08 09:16:51;;;;;;;1.73;1.05;;;28.60;40.10;;;;;;4991727;28;20117;-72
2023/08/08 09:19:18;;;;;;;1.52;0.82;;;28.50;41.50;;;;;;4992132;28;20114;-72
2023/08/08 09:21:44;;;;;;;2.17;1.15;;;28.60;41.00;;;;;;4990646;28;20041;-71
2023/08/08 09:24:10;;;;;;;13.10;3.78;;;28.70;40.70;;;;;;4991794;28;20506;-70
2023/08/08 09:26:36;;;;;;;5.40;2.33;;;28.60;41.50;;;;;;4991669;28;20125;-70
2023/08/08 09:29:03;;;;;;;3.70;1.38;;;28.60;42.10;;;;;;4990371;28;20041;-71
2023/08/08 09:31:30;;;;;;;3.17;1.33;;;28.80;40.70;;;;;;5006722;28;20027;-70
2023/08/08 09:34:01;;;;;;;5.47;1.00;;;28.90;41.00;;;;;;4991449;28;20077;-71
2023/08/08 09:36:27;;;;;;;1.65;1.00;;;28.80;40.90;;;;;;4991910;28;20089;-71
2023/08/08 09:38:57;;;;;;;0.70;0.70;;;28.80;40.80;;;;;;4991797;28;20091;-71
2023/08/08 09:41:24;;;;;;;3.72;1.30;;;28.80;40.80;;;;;;4991610;28;20038;-74
2023/08/08 09:43:52;;;;;;;0.60;0.60;;;28.80;40.80;;;;;;4991624;28;20076;-74
2023/08/08 09:46:22;;;;;;;0.80;0.70;;;28.70;37.90;;;;;;4991509;28;20042;-73
2023/08/08 09:48:52;;;;;;;0.65;0.60;;;28.50;36.80;;;;;;4990436;28;20135;-73
2023/08/08 09:51:20;;;;;;;0.55;0.55;;;28.50;36.50;;;;;;4991902;28;20041;-74
2023/08/08 09:53:56;;;;;;;0.55;0.55;;;28.30;37.10;;;;;;4991537;28;20030;-74
2023/08/08 09:56:26;;;;;;;0.70;0.70;;;28.30;37.60;;;;;;4991639;28;20041;-73
2023/08/08 09:58:53;;;;;;;0.82;0.80;;;28.50;38.90;;;;;;4991274;28;20169;-73
2023/08/08 10:01:21;;;;;;;2.35;0.60;;;28.70;40.00;;;;;;4991667;28;20023;-73
2023/08/08 10:03:56;;;;;;;2.05;0.95;;;28.60;42.20;;;;;;5027885;28;20045;-71
2023/08/08 10:06:22;;;;;;;1.52;0.68;;;28.60;41.90;;;;;;5027996;28;20050;-71
2023/08/08 10:08:50;;;;;;;1.45;0.70;;;28.60;40.30;;;;;;5028294;28;20050;-70
2023/08/08 10:11:17;;;;;;;2.90;0.70;;;28.60;39.90;;;;;;5028471;28;20021;-69
2023/08/08 10:13:52;;;;;;;1.13;0.60;;;28.70;39.70;;;;;;5028320;28;20136;-71
2023/08/08 10:16:20;;;;;;;2.92;0.52;;;28.50;36.90;;;;;;5028072;28;20498;-71
2023/08/08 10:18:55;;;;;;;2.90;0.90;;;28.50;37.90;;;;;;5028386;28;20038;-71
2023/08/08 10:21:22;;;;;;;4.35;0.90;;;28.50;39.00;;;;;;5028149;28;20045;-72
2023/08/08 10:23:49;;;;;;;6.22;1.40;;;28.50;39.10;;;;;;5027938;28;20041;-70
2023/08/08 10:26:19;;;;;;;3.85;0.95;;;28.60;39.40;;;;;;5031663;28;20111;-74
2023/08/08 10:28:59;;;;;;;3.33;0.85;;;28.60;39.70;;;;;;5031832;28;20504;-73
2023/08/08 10:31:25;;;;;;;2.58;0.73;;;28.70;39.60;;;;;;5032066;28;20663;-74
2023/08/08 10:34:05;;;;;;;1.25;0.47;;;28.80;39.20;;;;;;5031109;28;20148;-72
2023/08/08 10:36:51;;;;;;;1.25;0.65;;;28.80;39.10;;;;;;5015179;28;20045;-71
2023/08/08 10:39:19;;;;;;;1.13;0.50;;;28.80;39.60;;;;;;5031606;28;20029;-73
2023/08/08 10:41:50;;;;;;;1.77;0.70;;;28.80;39.60;;;;;;5002408;28;20062;-74
2023/08/08 10:44:26;;;;;;;0.63;0.40;;;28.70;39.40;;;;;;4991203;28;20037;-74
2023/08/08 10:46:54;;;;;;;0.85;0.63;;;28.80;39.20;;;;;;4991926;28;20553;-76
2023/08/08 10:49:21;;;;;;;0.80;0.80;;;28.80;39.10;;;;;;4991665;28;20038;-74
2023/08/08 10:51:49;;;;;;;2.92;0.77;;;28.80;39.00;;;;;;4991796;28;20529;-76
2023/08/08 10:54:30;;;;;;;0.80;0.70;;;28.80;39.00;;;;;;4993693;28;20430;-71
2023/08/08 10:56:59;;;;;;;0.60;0.60;;;28.80;38.90;;;;;;4994353;28;20042;-77
2023/08/08 10:59:36;;;;;;;1.20;0.70;;;28.80;38.90;;;;;;4994369;28;20071;-74
2023/08/08 11:02:02;;;;;;;2.03;1.02;;;28.80;38.80;;;;;;4994576;28;20418;-74
2023/08/08 11:04:30;;;;;;;0.65;0.65;;;28.80;38.80;;;;;;4994039;28;20470;-72
2023/08/08 11:06:56;;;;;;;1.08;0.63;;;28.90;38.40;;;;;;4994312;28;20046;-74
2023/08/08 11:09:23;;;;;;;0.40;0.40;;;28.90;38.60;;;;;;4994119;28;20065;-71
2023/08/08 11:11:50;;;;;;;0.85;0.47;;;29.00;39.20;;;;;;4994074;28;20045;-73
2023/08/08 11:14:18;;;;;;;0.50;0.50;;;28.90;38.50;;;;;;4994207;28;20042;-73
2023/08/08 11:16:45;;;;;;;0.63;0.63;;;28.90;38.50;;;;;;5009046;28;20038;-70
2023/08/08 11:19:12;;;;;;;0.45;0.45;;;28.90;38.50;;;;;;4994052;28;20038;-71
2023/08/08 11:21:42;;;;;;;0.82;0.60;;;28.90;38.40;;;;;;5008963;28;20049;-70
2023/08/08 11:24:09;;;;;;;1.45;0.63;;;28.80;38.30;;;;;;4993748;28;20088;-71
2023/08/08 11:26:37;;;;;;;0.60;0.60;;;28.90;38.40;;;;;;4993660;28;20035;-70
2023/08/08 11:29:07;;;;;;;0.52;0.40;;;28.90;38.30;;;;;;4993869;28;20081;-71
2023/08/08 11:31:37;;;;;;;0.98;0.80;;;28.90;38.40;;;;;;4993649;28;20109;-70
2023/08/08 11:34:04;;;;;;;1.23;0.80;;;28.90;38.30;;;;;;4993528;28;20054;-72
2023/08/08 11:36:33;;;;;;;0.50;0.50;;;28.90;38.20;;;;;;5007263;28;20026;-71
2023/08/08 11:39:09;;;;;;;0.60;0.60;;;28.90;38.20;;;;;;4992127;28;20597;-72
2023/08/08 11:41:36;;;;;;;0.50;0.50;;;28.90;38.20;;;;;;5008653;28;20034;-71
2023/08/08 11:44:07;;;;;;;1.40;1.10;;;28.90;38.30;;;;;;4992236;28;20502;-71
2023/08/08 11:46:33;;;;;;;2.47;0.80;;;28.80;38.60;;;;;;4993246;28;20046;-73
2023/08/08 11:49:06;;;;;;;0.82;0.82;;;28.80;38.70;;;;;;4990751;28;20511;-70
2023/08/08 11:51:36;;;;;;;0.75;0.70;;;28.70;38.50;;;;;;4990994;28;20536;-72
2023/08/08 11:54:04;;;;;;;2.15;0.88;;;28.70;38.20;;;;;;4990851;28;20542;-72
2023/08/08 11:56:34;;;;;;;0.98;0.77;;;28.70;38.20;;;;;;4990740;28;20038;-73
2023/08/08 11:59:00;;;;;;;0.70;0.70;;;28.60;38.00;;;;;;4990847;28;20161;-75
2023/08/08 12:01:28;;;;;;;0.70;0.70;;;28.60;38.30;;;;;;4990610;28;20125;-74
2023/08/08 12:03:55;;;;;;;0.75;0.73;;;28.70;38.90;;;;;;4990558;28;20074;-74
2023/08/08 12:06:28;;;;;;;0.70;0.70;;;28.70;39.10;;;;;;4990501;28;20038;-74
2023/08/08 12:08:54;;;;;;;1.15;0.50;;;28.70;38.90;;;;;;4990340;28;20050;-74
2023/08/08 12:11:20;;;;;;;0.85;0.82;;;28.70;39.00;;;;;;4990439;28;20054;-74
2023/08/08 12:13:46;;;;;;;0.98;0.70;;;28.50;38.90;;;;;;4990486;28;20402;-74
2023/08/08 12:16:14;;;;;;;2.80;0.80;;;28.70;38.80;;;;;;4973852;28;20498;-74
2023/08/08 12:18:40;;;;;;;0.60;0.60;;;28.70;38.70;;;;;;4990492;28;20050;-74
2023/08/08 12:21:08;;;;;;;1.25;0.63;;;28.70;38.40;;;;;;4990213;28;20049;-72
2023/08/08 12:23:36;;;;;;;0.60;0.60;;;28.80;38.50;;;;;;4990326;28;20049;-71
2023/08/08 12:26:05;;;;;;;2.40;0.98;;;28.60;38.30;;;;;;4990100;28;20030;-71
2023/08/08 12:28:32;;;;;;;0.70;0.70;;;28.60;38.30;;;;;;4990263;28;20050;-72
2023/08/08 12:30:58;;;;;;;0.82;0.75;;;28.70;38.40;;;;;;4973867;28;20046;-72
2023/08/08 12:33:24;;;;;;;0.82;0.77;;;28.70;38.60;;;;;;4990005;28;20047;-71
2023/08/08 12:35:51;;;;;;;0.68;0.68;;;28.60;38.70;;;;;;4989968;28;20050;-72
2023/08/08 12:38:17;;;;;;;0.50;0.50;;;28.60;38.80;;;;;;4990184;28;20034;-72
2023/08/08 12:40:43;;;;;;;0.98;0.60;;;28.70;38.90;;;;;;4989797;28;20065;-72
2023/08/08 12:43:13;;;;;;;0.68;0.68;;;28.60;39.00;;;;;;4989795;28;20030;-71
2023/08/08 12:45:40;;;;;;;0.50;0.50;;;28.60;39.20;;;;;;4990235;28;20126;-72
2023/08/08 12:48:06;;;;;;;1.08;0.68;;;28.60;39.40;;;;;;4992130;28;20034;-71
2023/08/08 12:50:32;;;;;;;1.08;0.73;;;28.70;39.70;;;;;;4992008;28;20038;-72